Time,TemperatureF,DewpointF,PressureIn,WindDirection,WindDirectionDegrees,WindSpeedMPH,WindSpeedGustMPH,Humidity,HourlyPrecipIn,Conditions,Clouds,dailyrainin,SoftwareType,DateUTC
2013-02-11 00:00:00,40.3,37.3,30.24,SW,225,0.0,0.0,89,0.00,CLR,BKN,0.00,WeatherDisplay:10.37,2013-02-11 08:00:00,
2013-02-11 00:05:00,40.3,37.3,30.24,SW,225,0.0,0.0,89,0.00,CLR,BKN,0.00,WeatherDisplay:10.37,2013-02-11 08:05:00,
2013-02-11 00:10:00,40.3,37.3,30.25,South,180,0.0,0.0,89,0.00,CLR,BKN,0.00,WeatherDisplay:10.37,2013-02-11 08:10:00,
2013-02-11 00:15:00,40.1,37.1,30.25,SE,135,0.0,1.1,89,0.00,CLR,BKN,0.00,WeatherDisplay:10.37,2013-02-11 08:15:00,
2013-02-11 00:20:00,40.1,37.1,30.25,South,180,0.0,1.1,89,0.00,CLR,BKN,0.00,WeatherDisplay:10.37,2013-02-11 08:20:00,
2013-02-11 00:25:00,40.1,37.1,30.25,South,180,0.0,1.1,89,0.00,CLR,BKN,0.00,WeatherDisplay:10.37,2013-02-11 08:25:00,
2013-02-11 00:27:00,39.9,37.2,30.25,East,90,0.0,1.1,90,0.00,CLR,BKN,0.00,WeatherDisplay:10.37,2013-02-11 08:27:00,
2013-02-11 00:30:00,39.9,37.2,30.25,SE,135,0.0,1.1,90,0.00,CLR,BKN,0.00,WeatherDisplay:10.37,2013-02-11 08:30:00,
2013-02-11 00:35:00,39.9,37.2,30.25,NE,45,0.0,1.1,90,0.00,CLR,BKN,0.00,WeatherDisplay:10.37,2013-02-11 08:35:00,
2013-02-11 01:00:00,39.7,37.0,30.24,East,90,0.0,1.1,90,0.00,CLR,BKN,0.00,WeatherDisplay:10.37,2013-02-11 09:00:00,
2013-02-11 01:05:00,39.7,37.0,30.23,East,90,0.0,1.1,90,0.00,CLR,BKN,0.00,WeatherDisplay:10.37,2013-02-11 09:05:00,
2013-02-11 01:10:00,39.6,37.2,30.23,SE,135,0.0,1.1,91,0.00,CLR,BKN,0.00,WeatherDisplay:10.37,2013-02-11 09:10:00,
2013-02-11 01:15:00,39.6,37.2,30.23,SE,135,0.0,0.0,91,0.00,CLR,BKN,0.00,WeatherDisplay:10.37,2013-02-11 09:15:00,
2013-02-11 01:20:00,39.4,37.0,30.23,SE,135,0.0,0.0,91,0.00,CLR,BKN,0.00,WeatherDisplay:10.37,2013-02-11 09:20:00,
2013-02-11 01:25:00,39.4,37.0,30.23,NE,45,0.0,1.1,91,0.00,CLR,BKN,0.00,WeatherDisplay:10.37,2013-02-11 09:25:00,
2013-02-11 01:27:00,39.2,36.8,30.24,NW,315,0.0,0.0,91,0.00,CLR,BKN,0.00,WeatherDisplay:10.37,2013-02-11 09:27:00,
2013-02-11 01:30:00,39.4,37.0,30.23,NW,315,0.0,0.0,91,0.00,CLR,BKN,0.00,WeatherDisplay:10.37,2013-02-11 09:30:00,
2013-02-11 01:35:00,39.4,37.0,30.23,NW,315,0.0,0.0,91,0.00,CLR,BKN,0.00,WeatherDisplay:10.37,2013-02-11 09:35:00,
2013-02-11 02:00:00,39.4,37.2,30.24,South,180,0.0,0.0,92,0.00,CLR,BKN,0.00,WeatherDisplay:10.37,2013-02-11 10:00:00,
2013-02-11 02:05:00,39.4,37.2,30.23,South,180,0.0,0.0,92,0.00,CLR,BKN,0.00,WeatherDisplay:10.37,2013-02-11 10:05:00,
2013-02-11 02:10:00,39.4,37.2,30.24,South,180,0.0,1.1,92,0.00,CLR,BKN,0.00,WeatherDisplay:10.37,2013-02-11 10:10:00,
2013-02-11 02:15:00,39.4,37.2,30.23,West,270,0.0,1.1,92,0.00,CLR,BKN,0.00,WeatherDisplay:10.37,2013-02-11 10:15:00,
2013-02-11 02:20:00,39.4,37.2,30.23,West,270,0.0,0.0,92,0.00,CLR,BKN,0.00,WeatherDisplay:10.37,2013-02-11 10:20:00,
2013-02-11 02:25:00,39.2,37.1,30.23,West,270,0.0,1.1,92,0.00,CLR,BKN,0.00,WeatherDisplay:10.37,2013-02-11 10:25:00,
2013-02-11 02:27:00,39.4,37.2,30.23,East,90,0.0,0.0,92,0.00,CLR,BKN,0.00,WeatherDisplay:10.37,2013-02-11 10:27:00,
2013-02-11 02:30:00,39.4,37.2,30.23,South,180,0.0,1.1,92,0.00,CLR,BKN,0.00,WeatherDisplay:10.37,2013-02-11 10:30:00,
2013-02-11 02:35:00,39.2,37.1,30.23,East,90,0.0,0.0,92,0.00,CLR,BKN,0.00,WeatherDisplay:10.37,2013-02-11 10:35:00,
2013-02-11 03:00:00,39.2,37.1,30.23,SE,135,0.0,0.0,92,0.00,CLR,BKN,0.00,WeatherDisplay:10.37,2013-02-11 11:00:00,
2013-02-11 03:05:00,39.2,37.1,30.23,SE,135,0.0,0.0,92,0.00,CLR,BKN,0.00,WeatherDisplay:10.37,2013-02-11 11:05:00,
2013-02-11 03:10:00,39.2,37.1,30.23,SE,135,0.0,0.0,92,0.00,CLR,BKN,0.00,WeatherDisplay:10.37,2013-02-11 11:10:00,
2013-02-11 03:15:00,39.2,37.1,30.23,SE,135,0.0,1.1,92,0.00,CLR,BKN,0.00,WeatherDisplay:10.37,2013-02-11 11:15:00,
2013-02-11 03:20:00,39.2,37.1,30.23,SE,135,0.0,0.0,92,0.00,CLR,BKN,0.00,WeatherDisplay:10.37,2013-02-11 11:20:00,
2013-02-11 03:25:00,39.2,37.1,30.23,SE,135,0.0,1.1,92,0.00,CLR,BKN,0.00,WeatherDisplay:10.37,2013-02-11 11:25:00,
2013-02-11 03:27:00,39.2,37.1,30.23,SE,135,0.0,1.1,92,0.00,CLR,BKN,0.00,WeatherDisplay:10.37,2013-02-11 11:27:00,
2013-02-11 03:30:00,39.2,37.1,30.22,SE,135,0.0,1.1,92,0.00,CLR,BKN,0.00,WeatherDisplay:10.37,2013-02-11 11:30:00,
2013-02-11 03:35:00,39.2,37.1,30.23,SE,135,0.0,1.1,92,0.00,CLR,BKN,0.00,WeatherDisplay:10.37,2013-02-11 11:35:00,
2013-02-11 04:00:00,39.0,37.2,30.22,SW,225,0.0,1.6,93,0.00,CLR,BKN,0.00,WeatherDisplay:10.37,2013-02-11 12:00:00,
2013-02-11 04:05:00,39.0,37.2,30.22,SW,225,0.0,1.1,93,0.00,CLR,BKN,0.00,WeatherDisplay:10.37,2013-02-11 12:05:00,
2013-02-11 04:10:00,39.0,37.2,30.22,SW,225,0.0,1.1,93,0.00,CLR,BKN,0.00,WeatherDisplay:10.37,2013-02-11 12:10:00,
2013-02-11 04:15:00,38.8,37.0,30.22,West,270,0.0,1.1,93,0.00,CLR,BKN,0.00,WeatherDisplay:10.37,2013-02-11 12:15:00,
2013-02-11 04:20:00,38.8,37.0,30.22,West,270,0.0,1.1,93,0.00,CLR,BKN,0.00,WeatherDisplay:10.37,2013-02-11 12:20:00,
2013-02-11 04:25:00,38.7,36.8,30.22,West,270,0.0,0.0,93,0.00,CLR,BKN,0.00,WeatherDisplay:10.37,2013-02-11 12:25:00,
2013-02-11 04:27:00,38.5,36.6,30.22,West,270,0.0,0.0,93,0.00,CLR,BKN,0.00,WeatherDisplay:10.37,2013-02-11 12:27:00,
2013-02-11 04:30:00,38.7,36.5,30.22,West,270,0.0,0.0,92,0.00,CLR,BKN,0.00,WeatherDisplay:10.37,2013-02-11 12:30:00,
2013-02-11 04:35:00,38.5,36.6,30.22,West,270,0.0,0.0,93,0.00,CLR,BKN,0.00,WeatherDisplay:10.37,2013-02-11 12:35:00,
2013-02-11 05:00:00,38.7,36.8,30.22,SW,225,0.0,0.0,93,0.00,CLR,BKN,0.00,WeatherDisplay:10.37,2013-02-11 13:00:00,
2013-02-11 05:05:00,38.7,36.8,30.22,SW,225,0.0,0.0,93,0.00,CLR,BKN,0.00,WeatherDisplay:10.37,2013-02-11 13:05:00,
2013-02-11 05:10:00,38.7,36.8,30.22,SW,225,0.0,1.1,93,0.00,CLR,BKN,0.00,WeatherDisplay:10.37,2013-02-11 13:10:00,
2013-02-11 05:15:00,38.7,36.8,30.22,SW,225,0.0,0.0,93,0.00,CLR,BKN,0.00,WeatherDisplay:10.37,2013-02-11 13:15:00,
2013-02-11 05:20:00,38.5,36.6,30.22,SW,225,0.0,0.0,93,0.00,CLR,BKN,0.00,WeatherDisplay:10.37,2013-02-11 13:20:00,
2013-02-11 05:25:00,38.5,36.6,30.22,West,270,0.0,1.1,93,0.00,CLR,BKN,0.00,WeatherDisplay:10.37,2013-02-11 13:25:00,
2013-02-11 05:27:00,38.5,36.6,30.22,West,270,0.0,0.0,93,0.00,CLR,BKN,0.00,WeatherDisplay:10.37,2013-02-11 13:27:00,
2013-02-11 05:30:00,38.5,36.6,30.22,West,270,0.0,1.1,93,0.00,CLR,BKN,0.00,WeatherDisplay:10.37,2013-02-11 13:30:00,
2013-02-11 05:35:00,38.5,36.6,30.22,West,270,0.0,0.0,93,0.00,CLR,BKN,0.00,WeatherDisplay:10.37,2013-02-11 13:35:00,
2013-02-11 06:00:00,38.1,36.3,30.22,East,90,0.0,0.0,93,0.00,CLR,BKN,0.00,WeatherDisplay:10.37,2013-02-11 14:00:00,
2013-02-11 06:05:00,38.1,36.3,30.22,East,90,0.0,0.0,93,0.00,CLR,BKN,0.00,WeatherDisplay:10.37,2013-02-11 14:05:00,
2013-02-11 06:10:00,38.3,36.5,30.23,South,180,0.0,1.1,93,0.00,CLR,BKN,0.00,WeatherDisplay:10.37,2013-02-11 14:10:00,
2013-02-11 06:15:00,38.1,36.3,30.23,West,270,0.7,1.1,93,0.00,CLR,BKN,0.00,WeatherDisplay:10.37,2013-02-11 14:15:00,
2013-02-11 06:20:00,38.1,36.5,30.23,SW,225,0.0,1.1,94,0.00,CLR,BKN,0.00,WeatherDisplay:10.37,2013-02-11 14:20:00,
2013-02-11 06:25:00,38.1,36.3,30.23,West,270,0.0,1.1,93,0.00,CLR,BKN,0.00,WeatherDisplay:10.37,2013-02-11 14:25:00,
2013-02-11 06:27:00,38.1,36.5,30.23,NW,315,0.0,1.1,94,0.00,CLR,BKN,0.00,WeatherDisplay:10.37,2013-02-11 14:27:00,
2013-02-11 06:30:00,38.1,36.5,30.23,NW,315,0.0,1.1,94,0.00,CLR,BKN,0.00,WeatherDisplay:10.37,2013-02-11 14:30:00,
2013-02-11 06:35:00,38.1,36.5,30.23,NW,315,0.0,1.1,94,0.00,CLR,BKN,0.00,WeatherDisplay:10.37,2013-02-11 14:35:00,
2013-02-11 07:00:00,38.3,36.7,30.23,South,180,0.0,0.0,94,0.00,CLR,BKN,0.00,WeatherDisplay:10.37,2013-02-11 15:00:00,
2013-02-11 07:05:00,38.3,36.7,30.22,SE,135,0.0,1.6,94,0.00,CLR,BKN,0.00,WeatherDisplay:10.37,2013-02-11 15:05:00,
2013-02-11 07:10:00,38.3,36.7,30.22,SE,135,0.0,1.1,94,0.00,CLR,BKN,0.00,WeatherDisplay:10.37,2013-02-11 15:10:00,
2013-02-11 07:15:00,38.3,36.7,30.22,SE,135,0.0,1.1,94,0.00,CLR,BKN,0.00,WeatherDisplay:10.37,2013-02-11 15:15:00,
2013-02-11 07:20:00,38.5,36.9,30.23,SE,135,0.0,1.1,94,0.00,CLR,BKN,0.00,WeatherDisplay:10.37,2013-02-11 15:20:00,
2013-02-11 07:25:00,38.3,36.7,30.22,SE,135,0.0,0.0,94,0.00,CLR,BKN,0.00,WeatherDisplay:10.37,2013-02-11 15:25:00,
2013-02-11 07:27:00,38.3,36.7,30.23,North,0,0.0,1.1,94,0.00,CLR,BKN,0.00,WeatherDisplay:10.37,2013-02-11 15:27:00,
2013-02-11 07:30:00,38.5,36.9,30.23,West,270,0.0,1.1,94,0.00,CLR,BKN,0.00,WeatherDisplay:10.37,2013-02-11 15:30:00,
2013-02-11 07:35:00,38.5,36.9,30.23,North,0,0.0,1.1,94,0.00,CLR,BKN,0.00,WeatherDisplay:10.37,2013-02-11 15:35:00,
2013-02-11 08:00:00,38.8,37.3,30.23,West,270,0.0,0.0,94,0.00,CLR,BKN,0.00,WeatherDisplay:10.37,2013-02-11 16:00:00,
2013-02-11 08:05:00,39.0,37.4,30.24,West,270,0.0,0.0,94,0.00,CLR,BKN,0.00,WeatherDisplay:10.37,2013-02-11 16:05:00,
2013-02-11 08:10:00,39.2,37.6,30.24,NW,315,0.0,1.1,94,0.00,CLR,BKN,0.00,WeatherDisplay:10.37,2013-02-11 16:10:00,
2013-02-11 08:15:00,39.4,37.8,30.23,SW,225,0.7,1.1,94,0.00,CLR,BKN,0.00,WeatherDisplay:10.37,2013-02-11 16:15:00,
2013-02-11 08:20:00,39.7,38.2,30.24,SW,225,0.0,1.1,94,0.00,CLR,BKN,0.00,WeatherDisplay:10.37,2013-02-11 16:20:00,
2013-02-11 08:25:00,39.9,38.3,30.24,SW,225,0.0,1.1,94,0.00,CLR,BKN,0.00,WeatherDisplay:10.37,2013-02-11 16:25:00,
2013-02-11 08:27:00,40.8,39.2,30.25,SW,225,0.0,1.1,94,0.00,CLR,BKN,0.00,WeatherDisplay:10.37,2013-02-11 16:27:00,
2013-02-11 08:30:00,40.3,38.7,30.24,SW,225,0.0,1.1,94,0.00,CLR,BKN,0.00,WeatherDisplay:10.37,2013-02-11 16:30:00,
2013-02-11 08:35:00,40.6,39.0,30.24,North,0,0.0,1.1,94,0.00,CLR,BKN,0.00,WeatherDisplay:10.37,2013-02-11 16:35:00,
2013-02-11 09:00:00,42.6,40.5,30.25,SW,225,0.0,1.1,92,0.00,CLR,BKN,0.00,WeatherDisplay:10.37,2013-02-11 17:00:00,
2013-02-11 09:05:00,42.8,40.4,30.25,NW,315,0.0,1.1,91,0.00,CLR,BKN,0.00,WeatherDisplay:10.37,2013-02-11 17:05:00,
2013-02-11 09:10:00,43.0,40.0,30.24,SE,135,0.7,1.6,89,0.00,CLR,BKN,0.00,WeatherDisplay:10.37,2013-02-11 17:10:00,
2013-02-11 09:15:00,43.2,39.6,30.24,SE,135,0.0,1.1,87,0.00,CLR,BKN,0.00,WeatherDisplay:10.37,2013-02-11 17:15:00,
2013-02-11 09:20:00,43.3,39.4,30.24,SE,135,0.0,1.1,86,0.00,CLR,BKN,0.00,WeatherDisplay:10.37,2013-02-11 17:20:00,
2013-02-11 09:25:00,43.7,39.2,30.24,SE,135,0.7,2.3,84,0.00,CLR,BKN,0.00,WeatherDisplay:10.37,2013-02-11 17:25:00,
2013-02-11 09:27:00,44.2,38.5,30.23,SE,135,0.7,3.4,80,0.00,CLR,BKN,0.00,WeatherDisplay:10.37,2013-02-11 17:27:00,
2013-02-11 09:30:00,44.1,39.2,30.23,East,90,0.7,3.4,83,0.00,CLR,BKN,0.00,WeatherDisplay:10.37,2013-02-11 17:30:00,
2013-02-11 09:35:00,44.2,38.5,30.23,NE,45,0.7,4.6,80,0.00,CLR,BKN,0.00,WeatherDisplay:10.37,2013-02-11 17:35:00,
2013-02-11 10:00:00,45.7,39.5,30.24,South,180,0.0,3.4,79,0.00,CLR,BKN,0.00,WeatherDisplay:10.37,2013-02-11 18:00:00,
2013-02-11 10:05:00,45.9,39.1,30.24,SE,135,1.6,3.4,77,0.00,CLR,BKN,0.00,WeatherDisplay:10.37,2013-02-11 18:05:00,
2013-02-11 10:10:00,45.5,38.4,30.24,East,90,2.2,4.6,76,0.00,CLR,BKN,0.00,WeatherDisplay:10.37,2013-02-11 18:10:00,
2013-02-11 10:15:00,45.0,38.2,30.24,East,90,0.7,3.4,77,0.00,CLR,BKN,0.00,WeatherDisplay:10.37,2013-02-11 18:15:00,
2013-02-11 10:20:00,44.6,38.2,30.24,East,90,0.7,3.4,78,0.00,CLR,BKN,0.00,WeatherDisplay:10.37,2013-02-11 18:20:00,
2013-02-11 10:25:00,44.6,38.2,30.25,East,90,0.7,2.3,78,0.00,CLR,BKN,0.00,WeatherDisplay:10.37,2013-02-11 18:25:00,
2013-02-11 10:27:00,44.6,37.8,30.24,ESE,112,1.6,3.4,77,0.00,CLR,BKN,0.00,WeatherDisplay:10.37,2013-02-11 18:27:00,
2013-02-11 10:30:00,44.6,37.8,30.25,SE,135,1.6,3.4,77,0.00,CLR,BKN,0.00,WeatherDisplay:10.37,2013-02-11 18:30:00,
2013-02-11 10:35:00,44.6,37.8,30.24,South,180,0.7,3.4,77,0.00,CLR,BKN,0.00,WeatherDisplay:10.37,2013-02-11 18:35:00,
2013-02-11 11:00:00,46.0,38.2,30.23,SE,135,2.2,3.8,74,0.00,CLR,BKN,0.00,WeatherDisplay:10.37,2013-02-11 19:00:00,
2013-02-11 11:05:00,45.7,38.2,30.23,SE,135,2.2,5.8,75,0.00,CLR,BKN,0.00,WeatherDisplay:10.37,2013-02-11 19:05:00,
2013-02-11 11:10:00,45.3,38.2,30.24,East,90,1.6,4.6,76,0.00,CLR,BKN,0.00,WeatherDisplay:10.37,2013-02-11 19:10:00,
2013-02-11 11:15:00,45.3,38.2,30.24,East,90,2.2,6.0,76,0.00,CLR,BKN,0.00,WeatherDisplay:10.37,2013-02-11 19:15:00,
2013-02-11 11:20:00,45.1,38.0,30.25,East,90,3.1,6.9,76,0.00,CLR,BKN,0.00,WeatherDisplay:10.37,2013-02-11 19:20:00,
2013-02-11 11:25:00,45.1,38.0,30.25,East,90,2.2,4.6,76,0.00,CLR,BKN,0.00,WeatherDisplay:10.37,2013-02-11 19:25:00,
2013-02-11 11:27:00,45.7,38.5,30.24,NNE,22,2.2,3.4,76,0.00,CLR,BKN,0.00,WeatherDisplay:10.37,2013-02-11 19:27:00,
2013-02-11 11:30:00,45.3,38.2,30.24,East,90,1.6,3.4,76,0.00,CLR,BKN,0.00,WeatherDisplay:10.37,2013-02-11 19:30:00,
2013-02-11 11:35:00,45.7,38.5,30.24,East,90,2.2,4.6,76,0.00,CLR,BKN,0.00,WeatherDisplay:10.37,2013-02-11 19:35:00,
2013-02-11 12:00:00,46.0,39.9,30.25,North,0,0.7,3.4,79,0.00,CLR,BKN,0.00,WeatherDisplay:10.37,2013-02-11 20:00:00,
2013-02-11 12:05:00,45.9,39.7,30.25,NNW,338,0.7,1.1,79,0.00,CLR,BKN,0.00,WeatherDisplay:10.37,2013-02-11 20:05:00,
2013-02-11 12:10:00,45.9,39.7,30.24,NE,45,1.6,2.3,79,0.00,CLR,BKN,0.00,WeatherDisplay:10.37,2013-02-11 20:10:00,
2013-02-11 12:15:00,46.0,40.2,30.24,SE,135,0.7,2.3,80,0.00,CLR,BKN,0.00,WeatherDisplay:10.37,2013-02-11 20:15:00,
2013-02-11 12:20:00,46.0,40.2,30.23,SE,135,0.7,3.4,80,0.00,CLR,BKN,0.00,WeatherDisplay:10.37,2013-02-11 20:20:00,
2013-02-11 12:25:00,46.2,40.1,30.23,SW,225,0.0,3.4,79,0.00,CLR,BKN,0.00,WeatherDisplay:10.37,2013-02-11 20:25:00,
2013-02-11 12:27:00,46.4,40.2,30.23,SE,135,0.0,2.3,79,0.00,CLR,BKN,0.00,WeatherDisplay:10.37,2013-02-11 20:27:00,
2013-02-11 12:30:00,46.4,40.2,30.23,West,270,0.0,2.3,79,0.00,CLR,BKN,0.00,WeatherDisplay:10.37,2013-02-11 20:30:00,
2013-02-11 12:35:00,46.4,40.2,30.24,SE,135,0.7,2.3,79,0.00,CLR,BKN,0.00,WeatherDisplay:10.37,2013-02-11 20:35:00,
2013-02-11 13:00:00,46.0,39.9,30.23,East,90,2.2,4.6,79,0.00,CLR,BKN,0.00,WeatherDisplay:10.37,2013-02-11 21:00:00,
2013-02-11 13:05:00,46.0,40.2,30.23,South,180,0.7,3.4,80,0.00,CLR,BKN,0.00,WeatherDisplay:10.37,2013-02-11 21:05:00,
2013-02-11 13:10:00,46.0,39.9,30.23,West,270,0.0,3.4,79,0.00,CLR,BKN,0.00,WeatherDisplay:10.37,2013-02-11 21:10:00,
2013-02-11 13:15:00,46.0,39.9,30.23,East,90,0.7,3.4,79,0.00,CLR,BKN,0.00,WeatherDisplay:10.37,2013-02-11 21:15:00,
2013-02-11 13:20:00,45.9,39.1,30.23,East,90,2.2,5.8,77,0.00,CLR,BKN,0.00,WeatherDisplay:10.37,2013-02-11 21:20:00,
2013-02-11 13:25:00,45.7,39.2,30.23,NW,315,0.7,3.4,78,0.00,CLR,BKN,0.00,WeatherDisplay:10.37,2013-02-11 21:25:00,
2013-02-11 13:27:00,45.3,39.8,30.22,North,0,0.0,4.6,81,0.00,CLR,BKN,0.00,WeatherDisplay:10.37,2013-02-11 21:27:00,
2013-02-11 13:30:00,45.7,39.9,30.22,East,90,2.2,3.8,80,0.00,CLR,BKN,0.00,WeatherDisplay:10.37,2013-02-11 21:30:00,
2013-02-11 13:35:00,45.3,39.8,30.22,North,0,0.7,5.8,81,0.00,CLR,BKN,0.00,WeatherDisplay:10.37,2013-02-11 21:35:00,
2013-02-11 14:00:00,45.1,40.3,30.23,NE,45,0.7,3.8,83,0.00,CLR,BKN,0.00,WeatherDisplay:10.37,2013-02-11 22:00:00,
2013-02-11 14:05:00,45.1,40.3,30.23,SW,225,0.0,3.4,83,0.00,CLR,BKN,0.00,WeatherDisplay:10.37,2013-02-11 22:05:00,
2013-02-11 14:10:00,45.3,40.5,30.22,NNW,338,0.0,3.4,83,0.00,CLR,BKN,0.00,WeatherDisplay:10.37,2013-02-11 22:10:00,
2013-02-11 14:15:00,45.3,40.5,30.23,SE,135,0.7,3.4,83,0.00,CLR,BKN,0.00,WeatherDisplay:10.37,2013-02-11 22:15:00,
2013-02-11 14:20:00,45.3,40.1,30.23,North,0,1.6,3.8,82,0.00,CLR,BKN,0.00,WeatherDisplay:10.37,2013-02-11 22:20:00,
2013-02-11 14:25:00,45.1,40.0,30.22,SE,135,1.6,3.4,82,0.00,CLR,BKN,0.00,WeatherDisplay:10.37,2013-02-11 22:25:00,
2013-02-11 14:27:00,45.0,40.1,30.22,South,180,0.0,1.6,83,0.00,CLR,BKN,0.00,WeatherDisplay:10.37,2013-02-11 22:27:00,
2013-02-11 14:30:00,44.8,39.9,30.22,SE,135,0.7,2.3,83,0.00,CLR,BKN,0.00,WeatherDisplay:10.37,2013-02-11 22:30:00,
2013-02-11 14:35:00,44.8,39.9,30.22,SE,135,0.7,3.4,83,0.00,CLR,BKN,0.00,WeatherDisplay:10.37,2013-02-11 22:35:00,
2013-02-11 15:00:00,44.2,40.0,30.23,NW,315,0.0,3.4,85,0.00,CLR,BKN,0.00,WeatherDisplay:10.37,2013-02-11 23:00:00,
2013-02-11 15:05:00,44.2,40.0,30.23,SE,135,0.7,2.3,85,0.00,CLR,BKN,0.00,WeatherDisplay:10.37,2013-02-11 23:05:00,
2013-02-11 15:10:00,44.4,40.2,30.23,South,180,0.0,3.4,85,0.00,CLR,BKN,0.00,WeatherDisplay:10.37,2013-02-11 23:10:00,
2013-02-11 15:15:00,44.4,40.2,30.23,South,180,0.0,5.8,85,0.00,CLR,BKN,0.00,WeatherDisplay:10.37,2013-02-11 23:15:00,
2013-02-11 15:20:00,44.4,40.2,30.23,SE,135,0.7,3.4,85,0.00,CLR,BKN,0.00,WeatherDisplay:10.37,2013-02-11 23:20:00,
2013-02-11 15:25:00,44.4,40.2,30.23,SSE,158,0.7,2.3,85,0.00,CLR,BKN,0.00,WeatherDisplay:10.37,2013-02-11 23:25:00,
2013-02-11 15:27:00,44.1,39.8,30.24,NE,45,0.0,1.1,85,0.00,CLR,BKN,0.00,WeatherDisplay:10.37,2013-02-11 23:27:00,
2013-02-11 15:30:00,44.1,39.8,30.23,SE,135,0.7,2.3,85,0.00,CLR,BKN,0.00,WeatherDisplay:10.37,2013-02-11 23:30:00,
2013-02-11 15:35:00,44.1,39.8,30.23,NE,45,0.0,1.6,85,0.00,CLR,BKN,0.00,WeatherDisplay:10.37,2013-02-11 23:35:00,
2013-02-11 16:00:00,43.7,39.8,30.24,WNW,292,0.7,2.3,86,0.00,CLR,BKN,0.00,WeatherDisplay:10.37,2013-02-12 00:00:00,
2013-02-11 16:05:00,43.7,39.8,30.24,WNW,292,0.7,2.3,86,0.00,CLR,BKN,0.00,WeatherDisplay:10.37,2013-02-12 00:05:00,
2013-02-11 16:10:00,43.5,39.9,30.24,NW,315,0.7,2.3,87,0.00,CLR,BKN,0.00,WeatherDisplay:10.37,2013-02-12 00:10:00,
2013-02-11 16:15:00,43.5,39.9,30.24,North,0,0.0,3.4,87,0.00,CLR,BKN,0.00,WeatherDisplay:10.37,2013-02-12 00:15:00,
2013-02-11 16:20:00,43.5,39.9,30.24,South,180,0.0,1.1,87,0.00,CLR,BKN,0.00,WeatherDisplay:10.37,2013-02-12 00:20:00,
2013-02-11 16:25:00,43.5,39.9,30.24,SE,135,0.7,2.3,87,0.00,CLR,BKN,0.00,WeatherDisplay:10.37,2013-02-12 00:25:00,
2013-02-11 16:27:00,43.3,40.0,30.24,North,0,0.7,2.3,88,0.00,CLR,BKN,0.00,WeatherDisplay:10.37,2013-02-12 00:27:00,
2013-02-11 16:30:00,43.5,40.2,30.24,East,90,0.0,1.1,88,0.00,CLR,BKN,0.00,WeatherDisplay:10.37,2013-02-12 00:30:00,
2013-02-11 16:35:00,43.5,40.2,30.24,SE,135,0.7,2.3,88,0.00,CLR,BKN,0.00,WeatherDisplay:10.37,2013-02-12 00:35:00,
2013-02-11 17:00:00,43.3,39.7,30.24,East,90,1.6,3.4,87,0.00,CLR,BKN,0.00,WeatherDisplay:10.37,2013-02-12 01:00:00,
2013-02-11 17:05:00,43.3,39.4,30.24,ESE,112,0.0,4.6,86,0.00,CLR,BKN,0.00,WeatherDisplay:10.37,2013-02-12 01:05:00,
2013-02-11 17:10:00,43.2,39.3,30.24,East,90,2.2,3.4,86,0.00,CLR,BKN,0.00,WeatherDisplay:10.37,2013-02-12 01:10:00,
2013-02-11 17:15:00,43.2,39.3,30.23,SE,135,2.2,5.8,86,0.00,CLR,BKN,0.00,WeatherDisplay:10.37,2013-02-12 01:15:00,
2013-02-11 17:20:00,43.2,39.3,30.23,East,90,1.6,3.4,86,0.00,CLR,BKN,0.00,WeatherDisplay:10.37,2013-02-12 01:20:00,
2013-02-11 17:25:00,43.0,39.1,30.23,SE,135,0.0,2.3,86,0.00,CLR,BKN,0.00,WeatherDisplay:10.37,2013-02-12 01:25:00,
2013-02-11 17:27:00,42.8,39.2,30.23,East,90,0.0,2.3,87,0.00,CLR,BKN,0.00,WeatherDisplay:10.37,2013-02-12 01:27:00,
2013-02-11 17:30:00,43.0,39.4,30.23,SE,135,0.0,2.3,87,0.00,CLR,BKN,0.00,WeatherDisplay:10.37,2013-02-12 01:30:00,
2013-02-11 17:35:00,42.8,39.2,30.23,East,90,0.7,2.3,87,0.00,CLR,BKN,0.00,WeatherDisplay:10.37,2013-02-12 01:35:00,
2013-02-11 18:00:00,42.6,39.0,30.23,East,90,0.7,3.4,87,0.00,CLR,BKN,0.00,WeatherDisplay:10.37,2013-02-12 02:00:00,
2013-02-11 18:05:00,42.6,39.0,30.23,East,90,0.7,3.4,87,0.00,CLR,BKN,0.00,WeatherDisplay:10.37,2013-02-12 02:05:00,
2013-02-11 18:10:00,42.6,38.7,30.23,East,90,1.6,3.4,86,0.00,CLR,BKN,0.00,WeatherDisplay:10.37,2013-02-12 02:10:00,
2013-02-11 18:15:00,42.4,38.8,30.24,East,90,0.7,2.3,87,0.00,CLR,BKN,0.00,WeatherDisplay:10.37,2013-02-12 02:15:00,
2013-02-11 18:20:00,42.4,38.8,30.24,East,90,0.0,1.1,87,0.00,CLR,BKN,0.00,WeatherDisplay:10.37,2013-02-12 02:20:00,
2013-02-11 18:25:00,42.4,38.8,30.23,East,90,0.0,1.1,87,0.00,CLR,BKN,0.00,WeatherDisplay:10.37,2013-02-12 02:25:00,
2013-02-11 18:27:00,42.4,38.8,30.24,SE,135,0.0,1.6,87,0.00,CLR,BKN,0.00,WeatherDisplay:10.37,2013-02-12 02:27:00,
2013-02-11 18:30:00,42.4,38.8,30.24,East,90,0.0,1.1,87,0.00,CLR,BKN,0.00,WeatherDisplay:10.37,2013-02-12 02:30:00,
2013-02-11 18:35:00,42.4,38.8,30.24,SE,135,0.0,1.1,87,0.00,CLR,BKN,0.00,WeatherDisplay:10.37,2013-02-12 02:35:00,
2013-02-11 19:00:00,42.3,39.0,30.23,East,90,2.2,3.4,88,0.00,CLR,BKN,0.00,WeatherDisplay:10.37,2013-02-12 03:00:00,
2013-02-11 19:05:00,42.3,39.0,30.23,East,90,2.2,3.4,88,0.00,CLR,BKN,0.00,WeatherDisplay:10.37,2013-02-12 03:05:00,
2013-02-11 19:10:00,42.3,39.0,30.22,SE,135,0.7,2.3,88,0.00,CLR,BKN,0.00,WeatherDisplay:10.37,2013-02-12 03:10:00,
2013-02-11 19:15:00,42.1,38.8,30.23,SE,135,0.0,1.1,88,0.00,CLR,BKN,0.00,WeatherDisplay:10.37,2013-02-12 03:15:00,
2013-02-11 19:20:00,41.9,38.6,30.22,SE,135,0.0,1.1,88,0.00,CLR,BKN,0.00,WeatherDisplay:10.37,2013-02-12 03:20:00,
2013-02-11 19:25:00,41.9,38.6,30.22,SE,135,0.0,1.1,88,0.00,CLR,BKN,0.00,WeatherDisplay:10.37,2013-02-12 03:25:00,
2013-02-11 19:27:00,41.9,38.6,30.23,East,90,0.0,1.1,88,0.00,CLR,BKN,0.00,WeatherDisplay:10.37,2013-02-12 03:27:00,
2013-02-11 19:30:00,41.9,38.6,30.22,East,90,0.0,1.1,88,0.00,CLR,BKN,0.00,WeatherDisplay:10.37,2013-02-12 03:30:00,
2013-02-11 19:35:00,41.9,38.9,30.23,SE,135,0.0,1.1,89,0.00,CLR,BKN,0.00,WeatherDisplay:10.37,2013-02-12 03:35:00,
2013-02-11 20:00:00,41.9,39.2,30.22,SE,135,1.6,3.8,90,0.00,CLR,BKN,0.00,WeatherDisplay:10.37,2013-02-12 04:00:00,
2013-02-11 20:05:00,41.9,39.2,30.22,SE,135,1.6,3.4,90,0.00,CLR,BKN,0.00,WeatherDisplay:10.37,2013-02-12 04:05:00,
2013-02-11 20:10:00,41.7,39.0,30.23,SE,135,0.0,1.1,90,0.00,CLR,BKN,0.00,WeatherDisplay:10.37,2013-02-12 04:10:00,
2013-02-11 20:15:00,41.7,39.0,30.23,East,90,0.0,0.0,90,0.00,CLR,BKN,0.00,WeatherDisplay:10.37,2013-02-12 04:15:00,
2013-02-11 20:20:00,41.5,38.8,30.23,North,0,0.0,1.1,90,0.00,CLR,BKN,0.00,WeatherDisplay:10.37,2013-02-12 04:20:00,
2013-02-11 20:25:00,41.5,38.8,30.23,NE,45,0.0,1.1,90,0.00,CLR,BKN,0.00,WeatherDisplay:10.37,2013-02-12 04:25:00,
2013-02-11 20:27:00,41.4,38.6,30.23,East,90,0.0,1.1,90,0.00,CLR,BKN,0.00,WeatherDisplay:10.37,2013-02-12 04:27:00,
2013-02-11 20:30:00,41.5,38.8,30.23,North,0,0.0,1.1,90,0.00,CLR,BKN,0.00,WeatherDisplay:10.37,2013-02-12 04:30:00,
2013-02-11 20:35:00,41.4,38.6,30.23,East,90,0.0,1.6,90,0.00,CLR,BKN,0.00,WeatherDisplay:10.37,2013-02-12 04:35:00,
2013-02-11 21:00:00,41.5,39.4,30.24,East,90,0.0,1.1,92,0.00,CLR,BKN,0.00,WeatherDisplay:10.37,2013-02-12 05:00:00,
2013-02-11 21:05:00,41.5,39.4,30.24,East,90,0.0,1.1,92,0.00,CLR,BKN,0.00,WeatherDisplay:10.37,2013-02-12 05:05:00,
2013-02-11 21:10:00,41.5,39.4,30.24,East,90,1.6,2.3,92,0.00,CLR,BKN,0.00,WeatherDisplay:10.37,2013-02-12 05:10:00,
2013-02-11 21:15:00,41.5,39.4,30.24,ESE,112,1.6,3.4,92,0.00,CLR,BKN,0.00,WeatherDisplay:10.37,2013-02-12 05:15:00,
2013-02-11 21:20:00,41.5,39.7,30.24,SE,135,0.0,2.3,93,0.00,CLR,BKN,0.00,WeatherDisplay:10.37,2013-02-12 05:20:00,
2013-02-11 21:25:00,41.5,39.7,30.24,East,90,0.0,3.4,93,0.00,CLR,BKN,0.00,WeatherDisplay:10.37,2013-02-12 05:25:00,
2013-02-11 21:27:00,41.5,39.7,30.24,SE,135,0.0,1.1,93,0.00,CLR,BKN,0.00,WeatherDisplay:10.37,2013-02-12 05:27:00,
2013-02-11 21:30:00,41.5,39.7,30.24,SE,135,0.7,2.3,93,0.00,CLR,BKN,0.00,WeatherDisplay:10.37,2013-02-12 05:30:00,
2013-02-11 21:35:00,41.5,39.7,30.24,SE,135,0.0,1.1,93,0.00,CLR,BKN,0.00,WeatherDisplay:10.37,2013-02-12 05:35:00,
2013-02-11 22:00:00,41.4,39.5,30.25,SE,135,0.0,1.1,93,0.00,CLR,BKN,0.00,WeatherDisplay:10.37,2013-02-12 06:00:00,
2013-02-11 22:05:00,41.4,39.5,30.25,SE,135,0.0,1.1,93,0.00,CLR,BKN,0.00,WeatherDisplay:10.37,2013-02-12 06:05:00,
2013-02-11 22:10:00,41.4,39.5,30.24,East,90,0.0,1.1,93,0.00,CLR,BKN,0.00,WeatherDisplay:10.37,2013-02-12 06:10:00,
2013-02-11 22:15:00,41.4,39.5,30.25,South,180,0.0,1.1,93,0.00,CLR,BKN,0.00,WeatherDisplay:10.37,2013-02-12 06:15:00,
2013-02-11 22:20:00,41.4,39.5,30.24,SW,225,0.0,2.3,93,0.00,CLR,BKN,0.00,WeatherDisplay:10.37,2013-02-12 06:20:00,
2013-02-11 22:25:00,41.4,39.5,30.24,West,270,0.0,1.1,93,0.00,CLR,BKN,0.00,WeatherDisplay:10.37,2013-02-12 06:25:00,
2013-02-11 22:27:00,41.2,39.3,30.24,South,180,0.0,1.1,93,0.00,CLR,BKN,0.00,WeatherDisplay:10.37,2013-02-12 06:27:00,
2013-02-11 22:30:00,41.2,39.3,30.24,SE,135,0.0,1.1,93,0.00,CLR,BKN,0.00,WeatherDisplay:10.37,2013-02-12 06:30:00,
2013-02-11 22:35:00,41.2,39.3,30.24,South,180,0.0,1.1,93,0.00,CLR,BKN,0.00,WeatherDisplay:10.37,2013-02-12 06:35:00,
2013-02-11 23:00:00,41.2,39.3,30.24,SE,135,0.0,1.1,93,0.00,CLR,BKN,0.00,WeatherDisplay:10.37,2013-02-12 07:00:00,
2013-02-11 23:05:00,41.2,39.3,30.24,SE,135,0.0,1.1,93,0.00,CLR,BKN,0.00,WeatherDisplay:10.37,2013-02-12 07:05:00,
2013-02-11 23:10:00,41.2,39.3,30.24,SE,135,0.0,1.1,93,0.00,CLR,BKN,0.00,WeatherDisplay:10.37,2013-02-12 07:10:00,
2013-02-11 23:15:00,41.0,39.1,30.24,SE,135,0.0,1.1,93,0.00,CLR,BKN,0.00,WeatherDisplay:10.37,2013-02-12 07:15:00,
2013-02-11 23:20:00,41.0,39.1,30.24,SE,135,0.0,1.1,93,0.00,CLR,BKN,0.00,WeatherDisplay:10.37,2013-02-12 07:20:00,
2013-02-11 23:25:00,41.0,39.1,30.24,SE,135,0.0,0.0,93,0.00,CLR,BKN,0.00,WeatherDisplay:10.37,2013-02-12 07:25:00,
2013-02-11 23:27:00,41.0,39.1,30.24,NW,315,0.0,1.1,93,0.00,CLR,BKN,0.00,WeatherDisplay:10.37,2013-02-12 07:27:00,
2013-02-11 23:30:00,41.0,39.1,30.24,NW,315,0.0,1.1,93,0.00,CLR,BKN,0.00,WeatherDisplay:10.37,2013-02-12 07:30:00,
2013-02-11 23:35:00,41.0,39.1,30.24,NW,315,0.0,1.1,93,0.00,CLR,BKN,0.00,WeatherDisplay:10.37,2013-02-12 07:35:00,